createdAt,value
2022-08-26T00:00:39.677Z,2.50
2022-08-26T00:05:44.537Z,2.30
2022-08-26T00:10:49.663Z,2.70
2022-08-26T00:15:54.685Z,2.55
2022-08-26T00:20:58.144Z,4.13
2022-08-26T00:26:02.499Z,2.78
2022-08-26T00:31:07.368Z,2.78
2022-08-26T00:36:19.977Z,2.13
2022-08-26T00:41:23.955Z,2.35
2022-08-26T00:46:32.781Z,2.53
2022-08-26T00:51:43.921Z,2.10
2022-08-26T00:56:53.029Z,2.70
2022-08-26T01:01:58.249Z,3.17
2022-08-26T01:07:02.211Z,2.70
2022-08-26T01:12:06.897Z,2.67
2022-08-26T01:17:12.010Z,2.50
2022-08-26T01:22:19.398Z,2.55
2022-08-26T01:27:27.467Z,2.53
2022-08-26T01:32:36.834Z,2.25
2022-08-26T01:37:42.716Z,2.83
2022-08-26T01:42:49.248Z,2.55
2022-08-26T01:47:56.907Z,2.55
2022-08-26T01:53:05.990Z,2.38
2022-08-26T01:58:15.014Z,2.50
2022-08-26T02:03:21.771Z,2.33
2022-08-26T02:08:29.546Z,2.78
2022-08-26T02:13:39.631Z,3.53
2022-08-26T02:18:45.154Z,2.80
2022-08-26T02:23:52.175Z,3.00
2022-08-26T02:29:01.342Z,3.28
2022-08-26T02:34:11.774Z,2.97
2022-08-26T02:39:19.558Z,3.33
2022-08-26T02:44:27.562Z,2.90
2022-08-26T02:49:31.032Z,2.95
2022-08-26T02:54:34.391Z,3.67
2022-08-26T02:59:40.132Z,2.97
2022-08-26T03:04:58.074Z,2.65
2022-08-26T03:10:08.799Z,2.75
2022-08-26T03:15:17.883Z,2.80
2022-08-26T03:20:21.562Z,2.42
2022-08-26T03:25:26.313Z,2.80
2022-08-26T03:30:45.768Z,4.20
2022-08-26T03:35:50.602Z,2.90
2022-08-26T03:40:54.372Z,2.70
2022-08-26T03:45:59.227Z,2.78
2022-08-26T03:51:03.259Z,2.60
2022-08-26T03:56:07.940Z,3.63
2022-08-26T04:01:13.678Z,3.95
2022-08-26T04:06:19.945Z,3.35
2022-08-26T04:11:26.885Z,3.78
2022-08-26T04:16:32.549Z,3.58
2022-08-26T04:21:38.367Z,3.60
2022-08-26T04:26:43.879Z,3.63
2022-08-26T04:31:49.356Z,3.40
2022-08-26T04:36:53.284Z,3.88
2022-08-26T04:41:57.826Z,3.78
2022-08-26T04:47:03.493Z,4.45
2022-08-26T04:52:07.214Z,4.40
2022-08-26T04:57:11.225Z,4.47
2022-08-26T05:02:16.112Z,4.70
2022-08-26T05:07:19.621Z,4.47
2022-08-26T05:12:23.405Z,5.05
2022-08-26T05:17:28.805Z,5.05
2022-08-26T05:22:32.364Z,5.03
2022-08-26T05:27:35.772Z,6.20
2022-08-26T05:32:42.013Z,4.32
2022-08-26T05:37:45.592Z,5.43
2022-08-26T05:42:49.050Z,5.35
2022-08-26T05:47:54.188Z,4.90
2022-08-26T05:52:59.218Z,5.00
2022-08-26T05:58:02.876Z,4.85
2022-08-26T06:03:08.474Z,4.43
2022-08-26T06:08:15.262Z,4.97
2022-08-26T06:13:25.660Z,4.55
2022-08-26T06:18:35.512Z,4.72
2022-08-26T06:23:56.530Z,4.13
2022-08-26T06:29:00.205Z,3.95
2022-08-26T06:34:10.761Z,3.65
2022-08-26T06:39:17.115Z,3.83
2022-08-26T06:44:21.570Z,3.95
2022-08-26T06:49:27.785Z,3.65
2022-08-26T06:54:31.952Z,3.60
2022-08-26T06:59:35.490Z,3.67
2022-08-26T07:04:40.967Z,4.55
2022-08-26T07:09:45.965Z,3.45
2022-08-26T07:14:50.675Z,6.20
2022-08-26T07:19:55.661Z,5.18
2022-08-26T07:24:59.156Z,3.00
2022-08-26T07:30:03.117Z,3.20
2022-08-26T07:35:09.762Z,3.08
2022-08-26T07:40:13.330Z,3.08
2022-08-26T07:45:21.313Z,3.35
2022-08-26T07:50:49.355Z,3.33
2022-08-26T07:55:51.620Z,3.80
2022-08-26T08:00:55.632Z,3.20
2022-08-26T08:06:01.314Z,3.00
2022-08-26T08:11:04.911Z,3.30
2022-08-26T08:16:12.526Z,4.00
2022-08-26T08:21:21.842Z,3.15
2022-08-26T08:26:27.640Z,4.20
2022-08-26T08:36:59.738Z,4.95
2022-08-26T08:42:38.111Z,3.35
2022-08-26T08:47:45.799Z,3.72
2022-08-26T08:52:57.106Z,3.55
2022-08-26T08:58:05.166Z,3.20
2022-08-26T09:03:17.098Z,3.72
2022-08-26T09:08:28.402Z,3.67
2022-08-26T09:13:32.048Z,3.20
2022-08-26T09:18:56.511Z,3.55
2022-08-26T09:24:01.693Z,3.95
2022-08-26T09:29:08.895Z,3.85
2022-08-26T09:34:18.066Z,4.15
2022-08-26T09:39:38.042Z,3.80
2022-08-26T09:44:56.771Z,3.70
2022-08-26T09:50:09.526Z,4.32
2022-08-26T09:55:22.966Z,4.78
2022-08-26T10:00:32.873Z,5.35
2022-08-26T10:05:46.464Z,4.93
2022-08-26T10:10:53.082Z,4.45
2022-08-26T10:16:15.961Z,4.72
2022-08-26T10:21:23.945Z,4.38
2022-08-26T10:26:36.848Z,4.55
2022-08-26T10:31:43.189Z,4.53
2022-08-26T10:37:14.568Z,4.88
2022-08-26T10:42:29.217Z,4.65
2022-08-26T10:47:39.684Z,4.78
2022-08-26T10:52:59.185Z,4.32
2022-08-26T10:58:26.143Z,4.70
2022-08-26T11:03:40.200Z,5.43
2022-08-26T11:08:47.953Z,4.32
2022-08-26T11:14:04.629Z,3.97
2022-08-26T11:19:09.901Z,4.20
2022-08-26T11:24:42.623Z,4.03
2022-08-26T11:30:02.689Z,4.30
2022-08-26T11:35:08.080Z,4.38
2022-08-26T11:40:15.387Z,4.70
2022-08-26T11:45:25.468Z,4.00
2022-08-26T11:50:30.101Z,4.15
2022-08-26T11:55:35.081Z,5.85
2022-08-26T12:00:52.449Z,4.10
2022-08-26T12:05:57.389Z,4.38
2022-08-26T12:11:07.046Z,4.03
2022-08-26T12:16:12.404Z,4.93
2022-08-26T12:21:24.304Z,4.40
2022-08-26T12:26:30.509Z,4.10
2022-08-26T12:31:37.484Z,3.83
2022-08-26T12:36:46.748Z,3.65
2022-08-26T12:41:52.722Z,3.70
2022-08-26T12:47:03.836Z,3.92
2022-08-26T12:52:09.115Z,3.78
2022-08-26T12:57:13.310Z,4.25
2022-08-26T13:02:39.912Z,3.97
2022-08-26T13:07:44.461Z,4.25
2022-08-26T13:12:48.242Z,3.72
2022-08-26T13:17:53.414Z,3.28
2022-08-26T13:22:59.396Z,3.50
2022-08-26T13:28:02.964Z,3.17
2022-08-26T13:33:08.807Z,3.45
2022-08-26T13:38:22.361Z,3.35
2022-08-26T13:43:37.227Z,3.60
2022-08-26T13:48:42.026Z,3.33
2022-08-26T13:53:48.552Z,3.20
2022-08-26T13:58:52.263Z,3.00
2022-08-26T14:03:57.235Z,2.78
2022-08-26T14:09:00.798Z,2.70
2022-08-26T14:14:04.245Z,2.80
2022-08-26T14:19:10.980Z,2.83
2022-08-26T14:24:14.424Z,2.63
2022-08-26T14:29:17.913Z,3.25
2022-08-26T14:34:22.777Z,3.50
2022-08-26T14:39:26.486Z,3.20
2022-08-26T14:44:32.668Z,2.50
2022-08-26T14:49:37.756Z,3.10
2022-08-26T14:54:41.250Z,3.78
2022-08-26T14:59:50.164Z,2.97
2022-08-26T15:04:55.177Z,3.15
2022-08-26T15:09:58.612Z,3.30
2022-08-26T15:15:02.132Z,4.03
2022-08-26T15:20:10.266Z,3.88
2022-08-26T15:25:13.861Z,3.33
2022-08-26T15:30:18.388Z,3.90
2022-08-26T15:35:23.588Z,3.60
2022-08-26T15:40:27.906Z,3.35
2022-08-26T15:45:33.886Z,3.03
2022-08-26T15:50:49.871Z,3.28
2022-08-26T15:55:56.312Z,3.17
2022-08-26T16:01:00.194Z,3.13
2022-08-26T16:06:05.329Z,3.08
2022-08-26T16:11:09.361Z,4.47
2022-08-26T16:16:13.641Z,4.93
2022-08-26T16:21:20.938Z,4.85
2022-08-26T16:26:27.567Z,5.78
2022-08-26T16:31:31.201Z,6.20
2022-08-26T16:36:36.522Z,6.28
2022-08-26T16:41:40.248Z,6.05
2022-08-26T16:46:43.767Z,5.43
2022-08-26T16:51:48.588Z,5.35
2022-08-26T16:56:52.031Z,4.85
2022-08-26T17:01:56.090Z,4.53
2022-08-26T17:07:01.350Z,5.00
2022-08-26T17:12:05.438Z,4.10
2022-08-26T17:17:09.237Z,4.75
2022-08-26T17:22:14.523Z,3.92
2022-08-26T17:27:17.987Z,4.90
2022-08-26T17:32:21.474Z,4.18
2022-08-26T17:37:26.381Z,4.18
2022-08-26T17:42:31.501Z,4.78
2022-08-26T17:47:35.919Z,4.43
2022-08-26T17:52:42.651Z,4.45
2022-08-26T17:57:53.539Z,4.18
2022-08-26T18:02:58.740Z,3.85
2022-08-26T18:08:03.887Z,3.55
2022-08-26T18:13:07.285Z,4.03
2022-08-26T18:18:11.173Z,4.32
2022-08-26T18:23:16.031Z,4.32
2022-08-26T18:28:19.730Z,4.32
2022-08-26T18:33:23.234Z,4.88
2022-08-26T18:38:28.457Z,5.90
2022-08-26T18:43:31.899Z,4.55
2022-08-26T18:48:36.820Z,5.50
2022-08-26T18:53:42.123Z,6.07
2022-08-26T18:58:45.811Z,5.72
2022-08-26T19:03:51.331Z,5.03
2022-08-26T19:08:58.199Z,4.97
2022-08-26T19:14:03.128Z,5.00
2022-08-26T19:19:07.537Z,6.55
2022-08-26T19:24:15.695Z,6.35
2022-08-26T19:29:19.239Z,7.43
2022-08-26T19:34:22.738Z,5.30
2022-08-26T19:39:28.146Z,5.95
2022-08-26T19:44:49.154Z,6.28
2022-08-26T19:49:55.481Z,6.20
2022-08-26T19:55:01.608Z,5.47
2022-08-26T20:00:10.427Z,6.32
2022-08-26T20:05:15.118Z,6.85
2022-08-26T20:10:22.658Z,7.93
2022-08-26T20:15:26.438Z,6.85
2022-08-26T20:20:49.226Z,7.03
2022-08-26T20:25:57.563Z,7.25
2022-08-26T20:31:02.121Z,8.55
2022-08-26T20:36:07.306Z,8.38
2022-08-26T20:41:12.516Z,8.18
2022-08-26T20:46:21.999Z,7.88
2022-08-26T20:51:28.260Z,7.00
2022-08-26T20:56:33.148Z,7.90
2022-08-26T21:01:42.028Z,7.95
2022-08-26T21:06:52.323Z,7.97
2022-08-26T21:11:57.811Z,7.82
2022-08-26T21:17:01.292Z,7.93
2022-08-26T21:22:05.561Z,7.13
2022-08-26T21:27:10.670Z,5.82
2022-08-26T21:32:15.759Z,6.13
2022-08-26T21:37:19.319Z,6.40
2022-08-26T21:42:25.416Z,4.95
2022-08-26T21:47:29.190Z,5.72
2022-08-26T21:52:32.901Z,5.38
2022-08-26T21:57:37.786Z,5.82
2022-08-26T22:02:41.398Z,6.32
2022-08-26T22:07:44.980Z,7.07
2022-08-26T22:12:49.839Z,6.75
2022-08-26T22:17:53.379Z,6.30
2022-08-26T22:22:57.146Z,5.65
2022-08-26T22:28:02.042Z,8.00
2022-08-26T22:33:07.289Z,9.15
2022-08-26T22:38:11.194Z,8.95
2022-08-26T22:43:16.545Z,7.13
2022-08-26T22:48:22.110Z,7.30
2022-08-26T22:53:25.919Z,5.28
2022-08-26T22:58:31.107Z,4.63
2022-08-26T23:03:35.510Z,5.80
2022-08-26T23:08:39.769Z,6.70
2022-08-26T23:13:44.945Z,5.05
2022-08-26T23:18:48.418Z,5.47
2022-08-26T23:23:52.101Z,5.88
2022-08-26T23:28:57.335Z,5.90
2022-08-26T23:34:18.378Z,5.35
2022-08-26T23:39:22.373Z,5.72
2022-08-26T23:44:27.198Z,5.40
2022-08-26T23:49:30.690Z,4.70
2022-08-26T23:54:34.547Z,6.50
2022-08-26T23:59:40.320Z,6.22
